Hundvaag 1 weather for Jul 1997
Month no. 121
Obs.
Da.
Temp. Dew Point Precip. Wind
Speed
Wind gusts Cloud cover Press. Humidity Wind dir. Sunny OPT
01.07.1997 16,0   3,0     8       1  
02.07.1997 12,9   0,0     2          
03.07.1997 13,5   0,0     7       1  
04.07.1997 15,0   0,0     5       1  
05.07.1997 15,0   0,0     1          
06.07.1997 13,5   0,0     8       1  
07.07.1997 13,9   0,0     0          
08.07.1997 11,9   0,0     9       1  
09.07.1997 16,3   0,0     10       1  
10.07.1997 14,1   0,0     10       1  
11.07.1997 12,9   0,0     10       1  
12.07.1997 12,7   0,0     10       1  
13.07.1997 19,2   0,0     2          
14.07.1997 18,4   0,0     0          
15.07.1997 17,0   1,0     0          
16.07.1997 15,0   0,0     0          
17.07.1997 18,0   11,0     0          
18.07.1997 20,0   0,0     10       1  
19.07.1997 19,0   0,0     10       1  
20.07.1997 19,0   0,0     10       1  
21.07.1997 16,0   0,0     10       1  
22.07.1997 19,0   0,0     10       1  
23.07.1997 20,0   0,0     7       1  
24.07.1997 18,0   7,0     0          
25.07.1997 16,0   43,0     0          
26.07.1997 17,5   12,0     0          
27.07.1997 17,0   7,0     0          
28.07.1997 15,0   8,0     7       1  
29.07.1997 14,3   1,0     4          
30.07.1997 14,1   0,0     9       1  
31.07.1997 14,0   1,0     10       1  
Avrg/Sum 15,9   94,0     5,5       18